createdAt,value
2018-04-27T00:00:19.004Z,8.62
2018-04-27T00:01:18.987Z,8.55
2018-04-27T00:02:18.976Z,8.47
2018-04-27T00:03:18.953Z,8.38
2018-04-27T00:04:18.936Z,8.20
2018-04-27T00:05:18.912Z,8.01
2018-04-27T00:06:18.892Z,7.93
2018-04-27T00:07:18.887Z,7.86
2018-04-27T00:08:18.858Z,7.82
2018-04-27T00:09:18.840Z,7.77
2018-04-27T00:10:18.817Z,7.68
2018-04-27T00:11:18.810Z,7.61
2018-04-27T00:12:18.781Z,7.63
2018-04-27T00:13:18.765Z,7.58
2018-04-27T00:14:18.749Z,7.58
2018-04-27T00:15:18.726Z,7.52
2018-04-27T00:16:18.706Z,7.50
2018-04-27T00:17:18.694Z,7.52
2018-04-27T00:18:18.674Z,7.67
2018-04-27T00:19:18.706Z,7.50
2018-04-27T00:20:18.692Z,7.72
2018-04-27T00:21:18.661Z,7.71
2018-04-27T00:22:18.598Z,7.63
2018-04-27T00:23:18.600Z,7.61
2018-04-27T00:24:18.573Z,7.74
2018-04-27T00:25:18.542Z,7.82
2018-04-27T00:26:18.525Z,7.74
2018-04-27T00:27:18.524Z,7.83
2018-04-27T00:28:18.514Z,7.85
2018-04-27T00:29:18.494Z,7.72
2018-04-27T00:30:18.457Z,7.60
2018-04-27T00:31:18.453Z,7.74
2018-04-27T00:32:18.433Z,7.48
2018-04-27T00:33:18.446Z,7.48
2018-04-27T00:34:18.440Z,7.53
2018-04-27T00:35:18.365Z,7.45
2018-04-27T00:36:18.395Z,7.46
2018-04-27T00:37:18.360Z,7.49
2018-04-27T00:38:18.341Z,7.52
2018-04-27T00:39:18.313Z,7.52
2018-04-27T00:40:18.261Z,7.48
2018-04-27T00:41:18.279Z,7.48
2018-04-27T00:42:18.269Z,7.46
2018-04-27T00:43:18.252Z,7.35
2018-04-27T00:44:18.184Z,7.28
2018-04-27T00:45:18.166Z,7.28
2018-04-27T00:46:18.143Z,7.17
2018-04-27T00:47:18.126Z,7.15
2018-04-27T00:48:18.108Z,7.23
2018-04-27T00:49:18.092Z,7.16
2018-04-27T00:50:18.079Z,7.25
2018-04-27T00:51:18.052Z,7.17
2018-04-27T00:52:18.036Z,7.25
2018-04-27T00:53:18.013Z,7.17
2018-04-27T00:54:17.992Z,7.27
2018-04-27T00:55:17.972Z,7.15
2018-04-27T00:56:17.967Z,7.24
2018-04-27T00:57:17.934Z,7.15
2018-04-27T00:58:17.916Z,7.15
2018-04-27T00:59:17.899Z,7.12
2018-04-27T01:00:17.878Z,7.17
2018-04-27T01:01:17.865Z,7.16
2018-04-27T01:02:17.847Z,7.10
2018-04-27T01:03:17.824Z,7.07
2018-04-27T01:04:17.809Z,7.21
2018-04-27T01:05:17.784Z,7.15
2018-04-27T01:06:17.770Z,7.10
2018-04-27T01:07:17.758Z,6.94
2018-04-27T01:08:17.728Z,6.99
2018-04-27T01:09:17.709Z,7.05
2018-04-27T01:10:17.689Z,7.05
2018-04-27T01:11:17.674Z,6.91
2018-04-27T01:12:17.658Z,6.91
2018-04-27T01:13:17.635Z,6.99
2018-04-27T01:14:17.614Z,7.05
2018-04-27T01:15:17.596Z,7.09
2018-04-27T01:16:17.578Z,7.10
2018-04-27T01:17:17.559Z,7.12
2018-04-27T01:18:17.538Z,7.23
2018-04-27T01:19:17.527Z,7.30
2018-04-27T01:20:17.504Z,7.34
2018-04-27T01:21:17.485Z,7.37
2018-04-27T01:22:17.463Z,7.46
2018-04-27T01:23:17.486Z,7.50
2018-04-27T01:24:17.431Z,7.42
2018-04-27T01:25:17.406Z,7.50
2018-04-27T01:26:17.389Z,7.55
2018-04-27T01:27:17.369Z,7.67
2018-04-27T01:28:17.351Z,7.71
2018-04-27T01:29:17.333Z,7.61
2018-04-27T01:30:17.321Z,7.57
2018-04-27T01:31:17.294Z,7.60
2018-04-27T01:32:17.275Z,7.71
2018-04-27T01:33:17.275Z,7.79
2018-04-27T01:34:17.231Z,7.74
2018-04-27T01:35:17.223Z,7.75
2018-04-27T01:36:17.197Z,7.60
2018-04-27T01:37:17.178Z,7.77
2018-04-27T01:38:17.160Z,7.67
2018-04-27T01:39:17.142Z,7.71
2018-04-27T01:40:17.121Z,7.71
2018-04-27T01:41:17.101Z,7.69
2018-04-27T01:42:17.081Z,7.64
2018-04-27T01:43:17.066Z,7.67
2018-04-27T01:44:17.045Z,7.74
2018-04-27T01:45:17.025Z,7.79
2018-04-27T01:46:17.014Z,7.72
2018-04-27T01:47:16.987Z,7.71
2018-04-27T01:48:16.968Z,7.61
2018-04-27T01:49:16.948Z,7.55
2018-04-27T01:50:16.930Z,7.49
2018-04-27T01:51:16.924Z,7.46
2018-04-27T01:52:16.892Z,7.43
2018-04-27T01:53:16.877Z,7.34
2018-04-27T01:54:16.861Z,7.35
2018-04-27T01:55:16.837Z,7.39
2018-04-27T01:56:16.818Z,7.24
2018-04-27T01:57:16.796Z,7.40
2018-04-27T01:58:16.777Z,7.35
2018-04-27T01:59:16.760Z,7.37
2018-04-27T02:00:16.741Z,7.34
2018-04-27T02:01:16.724Z,7.34
2018-04-27T02:02:16.704Z,7.40
2018-04-27T02:03:16.686Z,7.37
2018-04-27T02:04:16.661Z,7.39
2018-04-27T02:05:16.645Z,7.35
2018-04-27T02:06:16.626Z,7.37
2018-04-27T02:07:16.609Z,7.45
2018-04-27T02:08:16.587Z,7.40
2018-04-27T02:09:16.570Z,7.42
2018-04-27T02:10:16.549Z,7.37
2018-04-27T02:11:16.536Z,7.42
2018-04-27T02:12:16.516Z,7.30
2018-04-27T02:13:16.497Z,7.34
2018-04-27T02:14:16.473Z,7.39
2018-04-27T02:15:16.457Z,7.39
2018-04-27T02:16:16.432Z,7.42
2018-04-27T02:17:16.422Z,7.45
2018-04-27T02:18:16.398Z,7.42
2018-04-27T02:19:16.378Z,7.43
2018-04-27T02:20:16.359Z,7.45
2018-04-27T02:21:16.339Z,7.46
2018-04-27T02:22:16.321Z,7.40
2018-04-27T02:23:16.301Z,7.34
2018-04-27T02:24:16.284Z,7.39
2018-04-27T02:25:16.270Z,7.30
2018-04-27T02:26:16.244Z,7.30
2018-04-27T02:27:16.228Z,7.32
2018-04-27T02:28:16.205Z,7.31
2018-04-27T02:29:16.187Z,7.31
2018-04-27T02:30:16.170Z,7.37
2018-04-27T02:31:16.149Z,7.28
2018-04-27T02:32:16.130Z,7.25
2018-04-27T02:33:16.109Z,7.28
2018-04-27T02:34:16.091Z,7.25
2018-04-27T02:35:16.070Z,7.28
2018-04-27T02:36:16.052Z,7.40
2018-04-27T02:37:16.032Z,7.25
2018-04-27T02:38:16.013Z,7.24
2018-04-27T02:39:16.009Z,7.21
2018-04-27T02:40:15.975Z,7.24
2018-04-27T02:41:15.959Z,7.32
2018-04-27T02:42:15.941Z,7.37
2018-04-27T02:43:15.921Z,7.23
2018-04-27T02:44:15.899Z,7.28
2018-04-27T02:45:15.879Z,7.28
2018-04-27T02:46:15.863Z,7.21
2018-04-27T02:47:15.841Z,7.30
2018-04-27T02:48:15.824Z,7.25
2018-04-27T02:49:15.801Z,7.23
2018-04-27T02:50:15.781Z,7.25
2018-04-27T02:51:15.767Z,7.28
2018-04-27T02:52:15.744Z,7.28
2018-04-27T02:53:15.728Z,7.27
2018-04-27T02:54:15.707Z,7.32
2018-04-27T02:55:15.691Z,7.23
2018-04-27T02:56:15.669Z,7.25
2018-04-27T02:57:15.648Z,7.25
2018-04-27T02:58:15.634Z,7.24
2018-04-27T02:59:15.610Z,7.28
2018-04-27T03:00:15.595Z,7.30
2018-04-27T03:01:15.572Z,7.25
2018-04-27T03:02:15.556Z,7.25
2018-04-27T03:03:15.533Z,7.37
2018-04-27T03:04:15.516Z,7.34
2018-04-27T03:05:15.493Z,7.32
2018-04-27T03:06:15.489Z,7.35
2018-04-27T03:07:15.459Z,7.32
2018-04-27T03:08:15.438Z,7.39
2018-04-27T03:09:15.420Z,7.35
2018-04-27T03:10:15.407Z,7.39
2018-04-27T03:11:15.383Z,7.32
2018-04-27T03:12:15.366Z,7.37
2018-04-27T03:13:15.372Z,7.35
2018-04-27T03:14:15.329Z,7.45
2018-04-27T03:15:15.315Z,7.43
2018-04-27T03:16:15.290Z,7.37
2018-04-27T03:17:15.312Z,7.34
2018-04-27T03:18:15.247Z,7.42
2018-04-27T03:19:15.231Z,7.40
2018-04-27T03:20:15.212Z,7.39
2018-04-27T03:21:15.190Z,7.46
2018-04-27T03:22:15.174Z,7.42
2018-04-27T03:23:15.161Z,7.45
2018-04-27T03:24:15.144Z,7.40
2018-04-27T03:25:15.109Z,7.32
2018-04-27T03:26:15.098Z,7.34
2018-04-27T03:27:15.076Z,7.34
2018-04-27T03:28:15.055Z,7.37
2018-04-27T03:29:15.035Z,7.32
2018-04-27T03:30:15.019Z,7.39
2018-04-27T03:31:14.995Z,7.32
2018-04-27T03:32:14.979Z,7.24
2018-04-27T03:33:14.963Z,7.30
2018-04-27T03:34:14.980Z,7.27
2018-04-27T03:35:14.923Z,7.34
2018-04-27T03:36:14.900Z,7.30
2018-04-27T03:37:14.890Z,7.35
2018-04-27T03:38:14.860Z,7.35
2018-04-27T03:39:14.844Z,7.34
2018-04-27T03:40:14.827Z,7.35
2018-04-27T03:41:14.806Z,7.37
2018-04-27T03:42:14.789Z,7.35
2018-04-27T03:43:14.774Z,7.37
2018-04-27T03:44:14.749Z,7.42
2018-04-27T03:45:14.728Z,7.35
2018-04-27T03:46:14.708Z,7.42
2018-04-27T03:47:14.693Z,7.32
2018-04-27T03:48:14.671Z,7.35
2018-04-27T03:49:14.652Z,7.30
2018-04-27T03:50:14.632Z,7.37
2018-04-27T03:51:14.617Z,7.32
2018-04-27T03:52:14.598Z,7.34
2018-04-27T03:53:14.582Z,7.30
2018-04-27T03:54:14.552Z,7.28
2018-04-27T03:55:14.536Z,7.35
2018-04-27T03:56:14.515Z,7.39
2018-04-27T03:57:14.497Z,7.35
2018-04-27T03:58:14.477Z,7.40
2018-04-27T03:59:14.465Z,7.37
2018-04-27T04:00:14.451Z,7.32
2018-04-27T04:01:14.488Z,7.40
2018-04-27T04:02:14.402Z,7.35
2018-04-27T04:03:14.382Z,7.37
2018-04-27T04:04:14.385Z,7.35
2018-04-27T04:05:14.347Z,7.40
2018-04-27T04:06:14.326Z,7.42
2018-04-27T04:07:14.311Z,7.46
2018-04-27T04:08:14.283Z,7.40
2018-04-27T04:09:14.267Z,7.43
2018-04-27T04:10:14.250Z,7.46
2018-04-27T04:11:14.227Z,7.40
2018-04-27T04:12:14.222Z,7.40
2018-04-27T04:13:14.187Z,7.43
2018-04-27T04:14:14.172Z,7.39
2018-04-27T04:15:14.158Z,7.39
2018-04-27T04:16:14.131Z,7.35
2018-04-27T04:17:14.116Z,7.24
2018-04-27T04:18:14.094Z,7.25
2018-04-27T04:19:14.073Z,7.07
2018-04-27T04:20:14.057Z,6.92
2018-04-27T04:21:14.042Z,6.92
2018-04-27T04:22:14.016Z,6.98
2018-04-27T04:23:13.998Z,6.95
2018-04-27T04:24:13.977Z,6.97
2018-04-27T04:25:13.967Z,6.99
2018-04-27T04:26:13.943Z,6.94
2018-04-27T04:27:13.923Z,6.97
2018-04-27T04:28:13.902Z,6.95
2018-04-27T04:29:13.881Z,6.92
2018-04-27T04:30:13.860Z,6.99
2018-04-27T04:31:13.841Z,6.95
2018-04-27T04:32:13.825Z,7.03
2018-04-27T04:33:13.808Z,6.97
2018-04-27T04:34:13.786Z,6.99
2018-04-27T04:35:13.768Z,6.99
2018-04-27T04:36:13.753Z,7.06
2018-04-27T04:37:13.728Z,7.09
2018-04-27T04:38:13.793Z,7.09
2018-04-27T04:39:13.688Z,7.10
2018-04-27T04:40:13.667Z,7.12
2018-04-27T04:41:13.646Z,7.16
2018-04-27T04:42:13.636Z,7.17
2018-04-27T04:43:13.615Z,7.12
2018-04-27T04:44:13.601Z,7.06
2018-04-27T04:45:13.572Z,7.05
2018-04-27T04:46:13.560Z,7.03
2018-04-27T04:47:13.532Z,7.02
2018-04-27T04:48:13.706Z,6.97
2018-04-27T04:49:13.550Z,7.10
2018-04-27T04:50:13.479Z,7.03
2018-04-27T04:51:13.476Z,7.03
2018-04-27T04:52:13.460Z,6.92
2018-04-27T04:53:13.421Z,6.97
2018-04-27T04:54:13.398Z,7.02
2018-04-27T04:55:13.378Z,7.02
2018-04-27T04:56:13.359Z,7.07
2018-04-27T04:57:13.338Z,6.94
2018-04-27T04:58:13.317Z,7.05
2018-04-27T04:59:13.302Z,7.06
2018-04-27T05:00:13.279Z,7.03
2018-04-27T05:01:13.263Z,7.02
2018-04-27T05:02:13.245Z,7.02
2018-04-27T05:03:13.227Z,7.07
2018-04-27T05:04:13.204Z,7.02
2018-04-27T05:05:13.184Z,7.09
2018-04-27T05:06:13.168Z,7.03
2018-04-27T05:07:13.147Z,7.09
2018-04-27T05:08:13.160Z,7.09
2018-04-27T05:09:13.106Z,7.05
2018-04-27T05:10:13.089Z,7.12
2018-04-27T05:11:13.066Z,7.13
2018-04-27T05:12:13.047Z,7.12
2018-04-27T05:13:13.028Z,7.15
2018-04-27T05:14:13.014Z,7.23
2018-04-27T05:15:12.994Z,7.23
2018-04-27T05:16:12.971Z,7.20
2018-04-27T05:17:12.955Z,7.31
2018-04-27T05:18:12.930Z,7.31
2018-04-27T05:19:12.917Z,7.37
2018-04-27T05:20:12.895Z,7.50
2018-04-27T05:21:12.875Z,7.42
2018-04-27T05:22:12.856Z,7.49
2018-04-27T05:23:12.834Z,7.48
2018-04-27T05:24:12.863Z,7.46
2018-04-27T05:25:12.806Z,7.61
2018-04-27T05:26:12.776Z,7.63
2018-04-27T05:27:12.758Z,7.74
2018-04-27T05:28:12.740Z,7.69
2018-04-27T05:29:12.721Z,7.61
2018-04-27T05:30:12.702Z,7.72
2018-04-27T05:31:12.697Z,7.80
2018-04-27T05:32:12.668Z,7.74
2018-04-27T05:33:12.651Z,7.75
2018-04-27T05:34:12.623Z,7.82
2018-04-27T05:35:12.605Z,7.86
2018-04-27T05:36:12.598Z,7.83
2018-04-27T05:37:12.568Z,7.83
2018-04-27T05:38:12.550Z,7.92
2018-04-27T05:39:12.524Z,7.90
2018-04-27T05:40:12.507Z,7.97
2018-04-27T05:41:12.490Z,7.87
2018-04-27T05:42:12.472Z,8.01
2018-04-27T05:43:12.450Z,8.01
2018-04-27T05:44:12.432Z,7.95
2018-04-27T05:45:12.416Z,7.95
2018-04-27T05:46:12.399Z,7.98
2018-04-27T05:47:12.376Z,8.01
2018-04-27T05:48:12.359Z,8.11
2018-04-27T05:49:12.338Z,8.11
2018-04-27T05:50:12.313Z,8.12
2018-04-27T05:51:12.307Z,8.10
2018-04-27T05:52:12.278Z,8.18
2018-04-27T05:53:12.256Z,8.23
2018-04-27T05:54:12.243Z,8.23
2018-04-27T05:55:12.219Z,8.40
2018-04-27T05:56:12.212Z,8.37
2018-04-27T05:57:12.187Z,8.40
2018-04-27T05:58:12.161Z,8.43
2018-04-27T05:59:12.148Z,8.41
2018-04-27T06:00:12.127Z,8.50
2018-04-27T06:01:12.105Z,8.55
2018-04-27T06:02:12.086Z,8.56
2018-04-27T06:03:12.067Z,8.58
2018-04-27T06:04:12.056Z,8.56
2018-04-27T06:05:12.031Z,8.63
2018-04-27T06:06:12.010Z,8.66
2018-04-27T06:07:11.994Z,8.66
2018-04-27T06:08:11.983Z,8.68
2018-04-27T06:09:11.951Z,8.70
2018-04-27T06:10:11.957Z,8.70
2018-04-27T06:11:11.920Z,8.80
2018-04-27T06:12:11.895Z,8.87
2018-04-27T06:13:11.883Z,8.89
2018-04-27T06:14:11.856Z,8.89
2018-04-27T06:15:11.844Z,8.92
2018-04-27T06:16:11.872Z,8.77
2018-04-27T06:17:11.805Z,8.89
2018-04-27T06:18:11.780Z,8.99
2018-04-27T06:19:11.762Z,8.91
2018-04-27T06:20:11.746Z,8.98
2018-04-27T06:21:11.727Z,9.08
2018-04-27T06:22:11.711Z,9.05
2018-04-27T06:23:11.691Z,9.11
2018-04-27T06:24:11.678Z,9.08
2018-04-27T06:25:11.650Z,9.14
2018-04-27T06:26:11.636Z,9.21
2018-04-27T06:27:11.612Z,9.24
2018-04-27T06:28:11.600Z,9.28
2018-04-27T06:29:11.581Z,9.21
2018-04-27T06:30:11.557Z,9.31
2018-04-27T06:31:11.535Z,9.33
2018-04-27T06:32:11.521Z,9.31
2018-04-27T06:33:11.502Z,9.40
2018-04-27T06:34:11.486Z,9.47
2018-04-27T06:35:11.460Z,9.50
2018-04-27T06:36:11.455Z,9.47
2018-04-27T06:37:11.422Z,9.48
2018-04-27T06:38:11.406Z,9.53
2018-04-27T06:39:11.386Z,9.64
2018-04-27T06:40:11.370Z,9.58
2018-04-27T06:41:11.348Z,9.54
2018-04-27T06:42:11.334Z,9.64
2018-04-27T06:43:11.311Z,9.69
2018-04-27T06:44:11.295Z,9.79
2018-04-27T06:45:11.271Z,9.78
2018-04-27T06:46:11.272Z,9.84
2018-04-27T06:47:11.248Z,9.84
2018-04-27T06:48:11.224Z,9.84
2018-04-27T06:49:11.197Z,9.87
2018-04-27T06:50:11.182Z,9.93
2018-04-27T06:51:11.159Z,9.89
2018-04-27T06:52:11.148Z,9.96
2018-04-27T06:53:11.133Z,9.97
2018-04-27T06:54:11.105Z,10.01
2018-04-27T06:55:11.087Z,10.09
2018-04-27T06:56:11.065Z,10.11
2018-04-27T06:57:11.051Z,10.05
2018-04-27T06:58:11.027Z,10.14
2018-04-27T06:59:11.085Z,10.20
2018-04-27T07:00:10.995Z,10.18
2018-04-27T07:01:10.973Z,10.22
2018-04-27T07:02:10.955Z,10.32
2018-04-27T07:03:10.935Z,10.36
2018-04-27T07:04:10.915Z,10.36
2018-04-27T07:05:10.969Z,10.40
2018-04-27T07:06:10.888Z,10.42
2018-04-27T07:07:10.861Z,10.53
2018-04-27T07:08:10.845Z,10.53
2018-04-27T07:09:10.902Z,10.55
2018-04-27T07:10:10.808Z,10.56
2018-04-27T07:11:10.796Z,10.66
2018-04-27T07:12:10.766Z,10.64
2018-04-27T07:13:10.761Z,10.64
2018-04-27T07:14:10.727Z,10.73
2018-04-27T07:15:10.711Z,10.76
2018-04-27T07:16:10.692Z,10.84
2018-04-27T07:17:10.688Z,10.73
2018-04-27T07:18:10.652Z,10.81
2018-04-27T07:19:10.641Z,10.79
2018-04-27T07:20:10.617Z,10.76
2018-04-27T07:21:10.599Z,10.85
2018-04-27T07:22:10.587Z,10.79
2018-04-27T07:23:10.571Z,10.88
2018-04-27T07:24:10.546Z,10.81
2018-04-27T07:25:10.527Z,10.86
2018-04-27T07:26:10.505Z,10.81
2018-04-27T07:27:10.492Z,10.97
2018-04-27T07:28:10.474Z,11.03
2018-04-27T07:29:10.460Z,11.04
2018-04-27T07:30:10.431Z,11.04
2018-04-27T07:31:10.413Z,10.97
2018-04-27T07:32:10.399Z,11.09
2018-04-27T07:33:10.381Z,11.15
2018-04-27T07:34:10.387Z,11.14
2018-04-27T07:35:10.340Z,11.19
2018-04-27T07:36:10.325Z,11.33
2018-04-27T07:37:10.301Z,11.39
2018-04-27T07:38:10.285Z,11.39
2018-04-27T07:39:10.268Z,11.44
2018-04-27T07:40:10.297Z,11.36
2018-04-27T07:41:10.233Z,11.43
2018-04-27T07:42:10.218Z,11.55
2018-04-27T07:43:10.194Z,11.60
2018-04-27T07:44:10.171Z,11.55
2018-04-27T07:45:10.159Z,11.73
2018-04-27T07:46:10.137Z,11.78
2018-04-27T07:47:10.118Z,11.86
2018-04-27T07:48:10.098Z,11.90
2018-04-27T07:49:10.086Z,12.07
2018-04-27T07:50:10.066Z,12.09
2018-04-27T07:51:10.047Z,12.10
2018-04-27T07:52:10.026Z,12.09
2018-04-27T07:53:10.007Z,12.04
2018-04-27T07:54:09.992Z,12.07
2018-04-27T07:55:09.977Z,12.12
2018-04-27T07:56:09.953Z,12.13
2018-04-27T07:57:09.937Z,12.12
2018-04-27T07:58:09.921Z,12.12
2018-04-27T07:59:09.908Z,12.12
2018-04-27T08:00:09.887Z,12.21
2018-04-27T08:01:09.866Z,12.21
2018-04-27T08:02:09.885Z,12.20
2018-04-27T08:03:09.835Z,12.21
2018-04-27T08:04:09.812Z,12.28
2018-04-27T08:05:09.796Z,12.19
2018-04-27T08:06:09.784Z,12.21
2018-04-27T08:07:09.782Z,12.28
2018-04-27T08:08:09.739Z,12.37
2018-04-27T08:09:09.721Z,12.35
2018-04-27T08:10:09.708Z,12.27
2018-04-27T08:11:09.685Z,12.38
2018-04-27T08:12:09.680Z,12.37
2018-04-27T08:13:09.646Z,12.53
2018-04-27T08:14:09.636Z,12.52
2018-04-27T08:15:09.613Z,12.60
2018-04-27T08:16:09.596Z,12.59
2018-04-27T08:17:09.576Z,12.62
2018-04-27T08:18:09.559Z,12.53
2018-04-27T08:19:09.541Z,12.47
2018-04-27T08:20:09.525Z,12.56
2018-04-27T08:21:09.512Z,12.57
2018-04-27T08:22:09.486Z,12.64
2018-04-27T08:23:09.475Z,12.68
2018-04-27T08:24:09.460Z,12.59
2018-04-27T08:25:09.451Z,12.67
2018-04-27T08:26:09.416Z,12.74
2018-04-27T08:27:09.399Z,12.75
2018-04-27T08:28:09.384Z,12.71
2018-04-27T08:29:09.372Z,12.78
2018-04-27T08:30:09.367Z,12.79
2018-04-27T08:31:09.328Z,12.82
2018-04-27T08:32:09.312Z,12.92
2018-04-27T08:33:09.296Z,12.93
2018-04-27T08:34:09.284Z,12.86
2018-04-27T08:35:09.256Z,12.89
2018-04-27T08:36:09.260Z,12.96
2018-04-27T08:37:09.221Z,12.83
2018-04-27T08:38:09.201Z,12.87
2018-04-27T08:39:09.187Z,12.95
2018-04-27T08:40:09.170Z,12.95
2018-04-27T08:41:09.151Z,12.83
2018-04-27T08:42:09.138Z,12.87
2018-04-27T08:43:09.116Z,12.85
2018-04-27T08:44:09.104Z,12.78
2018-04-27T08:45:09.085Z,12.86
2018-04-27T08:46:09.068Z,12.82
2018-04-27T08:47:09.047Z,12.87
2018-04-27T08:48:09.031Z,12.93
2018-04-27T08:49:09.014Z,12.96
2018-04-27T08:50:08.997Z,12.95
2018-04-27T08:51:08.978Z,13.03
2018-04-27T08:52:08.959Z,13.03
2018-04-27T08:53:08.947Z,13.05
2018-04-27T08:54:08.929Z,13.07
2018-04-27T08:55:08.907Z,13.03
2018-04-27T08:56:08.893Z,13.04
2018-04-27T08:57:08.876Z,12.95
2018-04-27T08:58:08.860Z,12.95
2018-04-27T08:59:08.840Z,13.05
2018-04-27T09:00:08.819Z,13.05
2018-04-27T09:01:08.807Z,13.00
2018-04-27T09:02:08.789Z,13.04
2018-04-27T09:03:08.766Z,13.04
2018-04-27T09:04:08.753Z,13.05
2018-04-27T09:05:08.734Z,13.15
2018-04-27T09:06:08.715Z,13.25
2018-04-27T09:07:08.699Z,13.29
2018-04-27T09:08:08.681Z,13.12
2018-04-27T09:09:08.663Z,13.11
2018-04-27T09:10:08.647Z,13.19
2018-04-27T09:11:08.629Z,13.22
2018-04-27T09:12:08.611Z,13.17
2018-04-27T09:13:08.603Z,13.26
2018-04-27T09:14:08.575Z,13.25
2018-04-27T09:15:08.558Z,13.28
2018-04-27T09:16:08.554Z,13.42
2018-04-27T09:17:08.526Z,13.42
2018-04-27T09:18:08.510Z,13.39
2018-04-27T09:19:08.489Z,13.45
2018-04-27T09:20:08.474Z,13.49
2018-04-27T09:21:08.456Z,13.64
2018-04-27T09:22:08.440Z,13.60
2018-04-27T09:23:08.430Z,13.59
2018-04-27T09:24:08.409Z,13.63
2018-04-27T09:25:08.393Z,13.54
2018-04-27T09:26:08.369Z,13.51
2018-04-27T09:27:08.354Z,13.59
2018-04-27T09:28:08.343Z,13.62
2018-04-27T09:29:08.320Z,13.71
2018-04-27T09:30:08.304Z,13.66
2018-04-27T09:31:08.287Z,13.57
2018-04-27T09:32:08.274Z,13.66
2018-04-27T09:33:08.275Z,13.67
2018-04-27T09:34:08.234Z,13.75
2018-04-27T09:35:08.218Z,13.71
2018-04-27T09:36:08.199Z,13.57
2018-04-27T09:37:08.180Z,13.62
2018-04-27T09:38:08.162Z,13.70
2018-04-27T09:39:08.154Z,13.67
2018-04-27T09:40:08.130Z,13.79
2018-04-27T09:41:08.131Z,13.92
2018-04-27T09:42:08.100Z,14.06
2018-04-27T09:43:08.077Z,14.00
2018-04-27T09:44:08.061Z,13.95
2018-04-27T09:45:08.045Z,13.92
2018-04-27T09:46:08.026Z,13.91
2018-04-27T09:47:08.010Z,13.91
2018-04-27T09:48:08.000Z,13.84
2018-04-27T09:49:07.976Z,13.88
2018-04-27T09:50:07.957Z,13.92
2018-04-27T09:51:07.940Z,14.00
2018-04-27T09:52:07.927Z,14.09
2018-04-27T09:53:07.912Z,14.02
2018-04-27T09:54:07.889Z,14.18
2018-04-27T09:55:07.883Z,14.15
2018-04-27T09:56:07.868Z,14.28
2018-04-27T09:57:07.849Z,14.22
2018-04-27T09:58:07.822Z,14.33
2018-04-27T09:59:07.807Z,14.32
2018-04-27T10:00:07.789Z,14.25
2018-04-27T10:01:07.776Z,14.20
2018-04-27T10:02:07.756Z,14.22
2018-04-27T10:03:07.739Z,14.18
2018-04-27T10:04:07.728Z,14.25
2018-04-27T10:05:07.703Z,14.28
2018-04-27T10:06:07.684Z,14.40
2018-04-27T10:07:07.670Z,14.33
2018-04-27T10:08:07.659Z,14.42
2018-04-27T10:09:07.635Z,14.37
2018-04-27T10:10:07.619Z,14.32
2018-04-27T10:11:07.600Z,14.43
2018-04-27T10:12:07.585Z,14.51
2018-04-27T10:13:07.570Z,14.51
2018-04-27T10:14:07.549Z,14.54
2018-04-27T10:15:07.619Z,14.57
2018-04-27T10:16:07.518Z,14.57
2018-04-27T10:17:07.519Z,14.60
2018-04-27T10:18:07.482Z,14.61
2018-04-27T10:19:07.467Z,14.52
2018-04-27T10:20:07.458Z,14.54
2018-04-27T10:21:07.434Z,14.58
2018-04-27T10:22:07.419Z,14.57
2018-04-27T10:23:07.399Z,14.64
2018-04-27T10:24:07.389Z,14.65
2018-04-27T10:25:07.371Z,14.73
2018-04-27T10:26:07.353Z,14.86
2018-04-27T10:27:07.343Z,14.81
2018-04-27T10:28:07.319Z,14.70
2018-04-27T10:29:07.300Z,14.89
2018-04-27T10:30:07.283Z,14.89
2018-04-27T10:31:07.273Z,14.96
2018-04-27T10:32:07.255Z,14.98
2018-04-27T10:33:07.238Z,14.92
2018-04-27T10:34:07.216Z,14.91
2018-04-27T10:35:07.199Z,14.98
2018-04-27T10:36:07.187Z,15.03
2018-04-27T10:37:07.172Z,15.06
2018-04-27T10:38:07.148Z,15.19
2018-04-27T10:39:07.144Z,15.17
2018-04-27T10:40:07.121Z,15.28
2018-04-27T10:41:07.099Z,15.38
2018-04-27T10:42:07.080Z,15.39
2018-04-27T10:43:07.079Z,15.44
2018-04-27T10:44:07.048Z,15.39
2018-04-27T10:45:07.040Z,15.50
2018-04-27T10:46:07.017Z,15.41
2018-04-27T10:47:07.004Z,15.47
2018-04-27T10:48:06.985Z,15.47
2018-04-27T10:49:06.967Z,15.46
2018-04-27T10:50:06.951Z,15.44
2018-04-27T10:51:06.937Z,15.54
2018-04-27T10:52:06.917Z,15.43
2018-04-27T10:53:06.907Z,15.50
2018-04-27T10:54:06.884Z,15.38
2018-04-27T10:55:06.876Z,15.39
2018-04-27T10:56:06.895Z,15.50
2018-04-27T10:57:06.837Z,15.41
2018-04-27T10:58:06.819Z,15.43
2018-04-27T10:59:06.805Z,15.38
2018-04-27T11:00:06.790Z,15.44
2018-04-27T11:01:06.771Z,15.43
2018-04-27T11:02:06.772Z,15.44
2018-04-27T11:03:06.738Z,15.47
2018-04-27T11:04:06.728Z,15.49
2018-04-27T11:05:06.708Z,15.38
2018-04-27T11:06:06.696Z,15.46
2018-04-27T11:07:06.683Z,15.47
2018-04-27T11:08:06.665Z,15.44
2018-04-27T11:09:06.650Z,15.54
2018-04-27T11:10:06.628Z,15.43
2018-04-27T11:11:06.692Z,15.53
2018-04-27T11:12:06.596Z,15.51
2018-04-27T11:13:06.579Z,15.62
2018-04-27T11:14:06.564Z,15.51
2018-04-27T11:15:06.548Z,15.49
2018-04-27T11:16:06.531Z,15.50
2018-04-27T11:17:06.569Z,15.56
2018-04-27T11:18:06.500Z,15.46
2018-04-27T11:19:06.480Z,15.53
2018-04-27T11:20:06.557Z,15.65
2018-04-27T11:21:06.452Z,15.68
2018-04-27T11:22:06.437Z,15.59
2018-04-27T11:23:06.421Z,15.69
2018-04-27T11:24:06.408Z,15.54
2018-04-27T11:25:06.392Z,15.62
2018-04-27T11:26:06.378Z,15.47
2018-04-27T11:27:06.358Z,15.43
2018-04-27T11:28:06.339Z,15.46
2018-04-27T11:29:06.325Z,15.41
2018-04-27T11:30:06.308Z,15.53
2018-04-27T11:31:06.288Z,15.51
2018-04-27T11:32:06.279Z,15.43
2018-04-27T11:33:06.259Z,15.31
2018-04-27T11:34:06.244Z,15.29
2018-04-27T11:35:06.226Z,15.32
2018-04-27T11:36:06.215Z,15.36
2018-04-27T11:37:06.193Z,15.44
2018-04-27T11:38:06.177Z,15.47
2018-04-27T11:39:06.160Z,15.54
2018-04-27T11:40:06.160Z,15.60
2018-04-27T11:41:06.131Z,15.72
2018-04-27T11:42:06.114Z,15.76
2018-04-27T11:43:06.101Z,15.71
2018-04-27T11:44:06.082Z,15.83
2018-04-27T11:45:06.080Z,15.68
2018-04-27T11:46:06.055Z,15.65
2018-04-27T11:47:06.034Z,15.59
2018-04-27T11:48:06.017Z,15.75
2018-04-27T11:49:05.999Z,15.84
2018-04-27T11:50:05.985Z,15.80
2018-04-27T11:51:05.969Z,15.86
2018-04-27T11:52:05.979Z,15.83
2018-04-27T11:53:05.941Z,15.94
2018-04-27T11:54:05.924Z,16.07
2018-04-27T11:55:05.916Z,16.15
2018-04-27T11:56:05.889Z,16.24
2018-04-27T11:57:05.879Z,16.38
2018-04-27T11:58:05.861Z,16.46
2018-04-27T11:59:05.845Z,16.57
2018-04-27T12:00:05.828Z,16.64
2018-04-27T12:01:05.810Z,16.67
2018-04-27T12:02:05.804Z,16.56
2018-04-27T12:03:05.783Z,16.42
2018-04-27T12:04:05.765Z,16.33
2018-04-27T12:05:05.749Z,16.15
2018-04-27T12:06:05.730Z,16.12
2018-04-27T12:07:05.724Z,16.20
2018-04-27T12:08:05.701Z,16.05
2018-04-27T12:09:05.686Z,15.92
2018-04-27T12:10:05.669Z,15.89
2018-04-27T12:11:05.663Z,15.86
2018-04-27T12:12:05.641Z,15.92
2018-04-27T12:13:05.645Z,15.87
2018-04-27T12:14:05.607Z,16.08
2018-04-27T12:15:05.590Z,16.31
2018-04-27T12:16:05.584Z,16.35
2018-04-27T12:17:05.557Z,16.30
2018-04-27T12:18:05.547Z,16.27
2018-04-27T12:19:05.529Z,16.15
2018-04-27T12:20:05.519Z,15.96
2018-04-27T12:21:05.497Z,15.86
2018-04-27T12:22:05.481Z,15.89
2018-04-27T12:23:05.722Z,15.87
2018-04-27T12:24:05.450Z,15.90
2018-04-27T12:25:05.436Z,16.11
2018-04-27T12:26:05.419Z,16.25
2018-04-27T12:27:05.403Z,16.25
2018-04-27T12:28:05.388Z,16.34
2018-04-27T12:29:05.371Z,16.50
2018-04-27T12:30:05.354Z,16.64
2018-04-27T12:31:05.341Z,16.61
2018-04-27T12:32:05.324Z,16.91
2018-04-27T12:33:05.312Z,16.89
2018-04-27T12:34:05.292Z,16.97
2018-04-27T12:35:05.280Z,17.12
2018-04-27T12:36:05.266Z,17.18
2018-04-27T12:37:05.250Z,17.14
2018-04-27T12:38:05.253Z,17.01
2018-04-27T12:39:05.218Z,16.93
2018-04-27T12:40:05.199Z,17.01
2018-04-27T12:41:05.184Z,17.07
2018-04-27T12:42:05.174Z,16.98
2018-04-27T12:43:05.161Z,17.01
2018-04-27T12:44:05.139Z,16.94
2018-04-27T12:45:05.170Z,16.94
2018-04-27T12:46:05.103Z,16.91
2018-04-27T12:47:05.098Z,16.96
2018-04-27T12:48:05.076Z,17.06
2018-04-27T12:49:05.059Z,16.91
2018-04-27T12:50:05.846Z,16.83
2018-04-27T12:51:05.039Z,16.83
2018-04-27T12:52:05.032Z,16.81
2018-04-27T12:53:05.004Z,16.75
2018-04-27T12:54:04.984Z,16.75
2018-04-27T12:55:04.978Z,16.75
2018-04-27T12:56:04.954Z,16.75
2018-04-27T12:57:04.947Z,16.88
2018-04-27T12:58:04.926Z,16.85
2018-04-27T12:59:04.907Z,16.85
2018-04-27T13:00:04.891Z,16.67
2018-04-27T13:01:04.875Z,16.43
2018-04-27T13:02:04.870Z,16.49
2018-04-27T13:03:04.859Z,16.20
2018-04-27T13:04:04.829Z,16.31
2018-04-27T13:05:04.812Z,16.25
2018-04-27T13:06:04.796Z,16.23